sensor_id;sensor_type;location;lat;lon;timestamp;pressure;altitude;pressure_sealevel;temperature;humidity
75577;BME280;64157;50.138;14.544;2022-11-20T06:40:40;97953.84;;;-4.72;89.71
75577;BME280;64157;50.138;14.544;2022-11-20T06:43:06;97992.47;;;-4.51;89.46
75577;BME280;64157;50.138;14.544;2022-11-20T06:45:31;97997.22;;;-4.69;89.93
75577;BME280;64157;50.138;14.544;2022-11-20T06:47:59;97938.19;;;-4.90;89.54
75577;BME280;64157;50.138;14.544;2022-11-20T06:50:25;97987.28;;;-4.68;90.07
75577;BME280;64157;50.138;14.544;2022-11-20T06:52:50;97992.41;;;-4.67;90.32
75577;BME280;64157;50.138;14.544;2022-11-20T06:55:16;97955.41;;;-4.86;91.21
75577;BME280;64157;50.138;14.544;2022-11-20T06:57:41;97922.00;;;-4.96;90.97
75577;BME280;64157;50.138;14.544;2022-11-20T07:00:07;97946.75;;;-4.93;90.79
75577;BME280;64157;50.138;14.544;2022-11-20T07:02:33;97965.16;;;-4.75;90.44
75577;BME280;64157;50.138;14.544;2022-11-20T07:04:58;97930.59;;;-4.99;90.44
75577;BME280;64157;50.138;14.544;2022-11-20T07:07:23;97975.44;;;-4.67;90.43
75577;BME280;64157;50.138;14.544;2022-11-20T07:09:49;97908.25;;;-5.04;90.71
75577;BME280;64157;50.138;14.544;2022-11-20T07:12:14;97933.34;;;-4.83;90.47
75577;BME280;64157;50.138;14.544;2022-11-20T07:14:40;97944.19;;;-4.68;90.66
75577;BME280;64157;50.138;14.544;2022-11-20T07:17:05;97935.09;;;-4.57;90.79
75577;BME280;64157;50.138;14.544;2022-11-20T07:19:30;97918.91;;;-4.67;89.93
75577;BME280;64157;50.138;14.544;2022-11-20T07:21:56;97916.22;;;-4.67;90.13
75577;BME280;64157;50.138;14.544;2022-11-20T07:24:21;97942.13;;;-4.51;89.98
75577;BME280;64157;50.138;14.544;2022-11-20T07:26:47;97965.09;;;-4.33;89.88
75577;BME280;64157;50.138;14.544;2022-11-20T07:29:14;97949.16;;;-4.40;90.70
75577;BME280;64157;50.138;14.544;2022-11-20T07:31:41;97962.72;;;-4.19;90.74
75577;BME280;64157;50.138;14.544;2022-11-20T07:34:06;97965.38;;;-4.25;90.27
75577;BME280;64157;50.138;14.544;2022-11-20T07:36:32;97942.69;;;-4.39;90.50
75577;BME280;64157;50.138;14.544;2022-11-20T07:38:57;97934.06;;;-4.46;89.49
75577;BME280;64157;50.138;14.544;2022-11-20T07:41:22;97970.75;;;-4.30;89.87
75577;BME280;64157;50.138;14.544;2022-11-20T07:43:48;97961.59;;;-4.23;90.13
75577;BME280;64157;50.138;14.544;2022-11-20T07:46:13;97964.28;;;-4.34;89.71
75577;BME280;64157;50.138;14.544;2022-11-20T07:48:39;97961.13;;;-4.05;89.95
75577;BME280;64157;50.138;14.544;2022-11-20T07:51:05;97983.81;;;-3.86;89.37
75577;BME280;64157;50.138;14.544;2022-11-20T07:53:30;97971.91;;;-3.95;89.46
75577;BME280;64157;50.138;14.544;2022-11-20T07:55:59;97940.63;;;-4.11;89.87
75577;BME280;64157;50.138;14.544;2022-11-20T07:58:25;97975.72;;;-3.91;90.08
75577;BME280;64157;50.138;14.544;2022-11-20T08:00:50;97967.38;;;-3.79;89.37
75577;BME280;64157;50.138;14.544;2022-11-20T08:03:16;97976.03;;;-3.67;89.47
75577;BME280;64157;50.138;14.544;2022-11-20T08:05:41;97959.06;;;-3.68;89.39
75577;BME280;64157;50.138;14.544;2022-11-20T08:08:07;97861.38;;;-4.46;88.55
75577;BME280;64157;50.138;14.544;2022-11-20T08:10:33;97950.94;;;-3.83;89.41
75577;BME280;64157;50.138;14.544;2022-11-20T08:12:58;97967.66;;;-3.50;89.62
75577;BME280;64157;50.138;14.544;2022-11-20T08:15:48;97959.59;;;-3.30;89.35
75577;BME280;64157;50.138;14.544;2022-11-20T08:18:15;97957.72;;;-3.25;87.93
75577;BME280;64157;50.138;14.544;2022-11-20T08:20:41;97969.31;;;-3.24;88.18
75577;BME280;64157;50.138;14.544;2022-11-20T08:23:07;97945.56;;;-3.27;88.42
75577;BME280;64157;50.138;14.544;2022-11-20T08:25:34;97945.81;;;-3.08;88.17
75577;BME280;64157;50.138;14.544;2022-11-20T08:28:02;97954.44;;;-3.01;87.62
75577;BME280;64157;50.138;14.544;2022-11-20T08:30:29;97958.44;;;-2.84;87.99
75577;BME280;64157;50.138;14.544;2022-11-20T08:32:55;97963.28;;;-2.70;86.82
75577;BME280;64157;50.138;14.544;2022-11-20T08:35:26;97927.66;;;-2.83;86.46
75577;BME280;64157;50.138;14.544;2022-11-20T08:37:51;97954.41;;;-2.76;87.70
75577;BME280;64157;50.138;14.544;2022-11-20T08:40:17;97932.06;;;-3.07;87.59
75577;BME280;64157;50.138;14.544;2022-11-20T08:42:49;97900.25;;;-3.56;87.50
75577;BME280;64157;50.138;14.544;2022-11-20T08:45:15;97946.91;;;-3.45;87.89
75577;BME280;64157;50.138;14.544;2022-11-20T08:47:41;97856.84;;;-3.95;88.47
75577;BME280;64157;50.138;14.544;2022-11-20T08:50:09;97930.22;;;-3.52;88.86
75577;BME280;64157;50.138;14.544;2022-11-20T08:52:34;97938.56;;;-3.43;88.80
75577;BME280;64157;50.138;14.544;2022-11-20T08:55:00;97886.22;;;-3.88;88.48
75577;BME280;64157;50.138;14.544;2022-11-20T08:57:25;97926.94;;;-3.64;88.47
75577;BME280;64157;50.138;14.544;2022-11-20T08:59:51;97919.13;;;-3.61;88.53
75577;BME280;64157;50.138;14.544;2022-11-20T09:02:16;97917.53;;;-3.57;89.25
75577;BME280;64157;50.138;14.544;2022-11-20T09:04:41;97955.81;;;-3.34;89.27
75577;BME280;64157;50.138;14.544;2022-11-20T09:07:07;97900.25;;;-3.45;89.28
75577;BME280;64157;50.138;14.544;2022-11-20T09:09:32;97915.06;;;-3.23;89.76
75577;BME280;64157;50.138;14.544;2022-11-20T09:11:58;97930.19;;;-3.22;89.90
75577;BME280;64157;50.138;14.544;2022-11-20T09:14:24;97899.16;;;-3.34;89.97
75577;BME280;64157;50.138;14.544;2022-11-20T09:16:54;97939.84;;;-2.95;89.59
75577;BME280;64157;50.138;14.544;2022-11-20T09:19:20;97904.00;;;-3.21;89.30
75577;BME280;64157;50.138;14.544;2022-11-20T09:21:45;97954.41;;;-2.81;90.23
75577;BME280;64157;50.138;14.544;2022-11-20T09:24:11;97940.63;;;-2.85;89.53
75577;BME280;64157;50.138;14.544;2022-11-20T09:26:36;97893.75;;;-3.24;89.57
75577;BME280;64157;50.138;14.544;2022-11-20T09:29:01;97962.50;;;-2.86;88.84
75577;BME280;64157;50.138;14.544;2022-11-20T09:31:27;97947.16;;;-3.01;88.28
75577;BME280;64157;50.138;14.544;2022-11-20T09:33:52;97940.69;;;-3.10;88.37
75577;BME280;64157;50.138;14.544;2022-11-20T09:36:18;97868.97;;;-3.57;88.48
75577;BME280;64157;50.138;14.544;2022-11-20T09:38:45;97886.50;;;-3.49;88.28
75577;BME280;64157;50.138;14.544;2022-11-20T09:41:31;97907.53;;;-3.41;88.90
75577;BME280;64157;50.138;14.544;2022-11-20T09:47:08;97896.72;;;-3.31;89.05
75577;BME280;64157;50.138;14.544;2022-11-20T09:52:59;97936.84;;;-2.84;89.09
75577;BME280;64157;50.138;14.544;2022-11-20T09:55:30;97909.34;;;-2.96;88.71
75577;BME280;64157;50.138;14.544;2022-11-20T09:57:57;97901.78;;;-2.94;88.68
75577;BME280;64157;50.138;14.544;2022-11-20T10:00:25;97910.94;;;-2.90;88.98
75577;BME280;64157;50.138;14.544;2022-11-20T10:03:00;97917.09;;;-2.64;89.17
75577;BME280;64157;50.138;14.544;2022-11-20T10:06:09;97909.81;;;-2.73;88.51
75577;BME280;64157;50.138;14.544;2022-11-20T10:08:50;97903.81;;;-2.55;88.93
75577;BME280;64157;50.138;14.544;2022-11-20T10:14:16;97916.22;;;-2.49;89.33
75577;BME280;64157;50.138;14.544;2022-11-20T10:17:23;97893.66;;;-2.84;88.55
75577;BME280;64157;50.138;14.544;2022-11-20T10:22:40;97903.53;;;-2.54;88.93
75577;BME280;64157;50.138;14.544;2022-11-20T10:25:18;97887.22;;;-2.33;88.04
75577;BME280;64157;50.138;14.544;2022-11-20T10:28:16;97889.09;;;-2.29;88.28
75577;BME280;64157;50.138;14.544;2022-11-20T10:30:48;97825.47;;;-2.55;88.80
75577;BME280;64157;50.138;14.544;2022-11-20T10:33:22;97859.50;;;-2.54;88.50
75577;BME280;64157;50.138;14.544;2022-11-20T10:35:59;97894.06;;;-2.46;88.58
75577;BME280;64157;50.138;14.544;2022-11-20T10:38:43;97848.50;;;-2.68;89.04
75577;BME280;64157;50.138;14.544;2022-11-20T10:41:25;97870.78;;;-2.42;88.87
75577;BME280;64157;50.138;14.544;2022-11-20T10:44:17;97886.44;;;-2.39;88.85
75577;BME280;64157;50.138;14.544;2022-11-20T10:47:05;97850.06;;;-2.57;88.60
75577;BME280;64157;50.138;14.544;2022-11-20T10:49:32;97860.56;;;-2.45;89.40
75577;BME280;64157;50.138;14.544;2022-11-20T10:57:49;97874.91;;;-2.55;89.80
75577;BME280;64157;50.138;14.544;2022-11-20T11:00:17;97859.50;;;-2.54;89.43
75577;BME280;64157;50.138;14.544;2022-11-20T11:02:48;97862.75;;;-2.57;89.48
75577;BME280;64157;50.138;14.544;2022-11-20T11:05:22;97832.09;;;-2.81;89.94
75577;BME280;64157;50.138;14.544;2022-11-20T11:07:54;97855.72;;;-2.53;89.33
75577;BME280;64157;50.138;14.544;2022-11-20T11:10:36;97859.47;;;-2.49;89.45
75577;BME280;64157;50.138;14.544;2022-11-20T11:13:07;97832.22;;;-2.58;88.87
75577;BME280;64157;50.138;14.544;2022-11-20T11:15:38;97794.75;;;-2.64;89.07
75577;BME280;64157;50.138;14.544;2022-11-20T11:18:05;97802.38;;;-1.98;88.00
75577;BME280;64157;50.138;14.544;2022-11-20T11:20:33;97816.91;;;-1.31;85.42
75577;BME280;64157;50.138;14.544;2022-11-20T11:22:59;97809.72;;;-1.70;84.87
75577;BME280;64157;50.138;14.544;2022-11-20T11:27:53;97781.06;;;-1.42;86.01
75577;BME280;64157;50.138;14.544;2022-11-20T11:30:21;97797.81;;;-1.16;85.89
75577;BME280;64157;50.138;14.544;2022-11-20T11:32:47;97828.28;;;-1.06;86.79
75577;BME280;64157;50.138;14.544;2022-11-20T11:35:22;97823.47;;;-1.09;86.60
75577;BME280;64157;50.138;14.544;2022-11-20T11:37:54;97836.59;;;-0.97;88.48
75577;BME280;64157;50.138;14.544;2022-11-20T11:40:21;97836.03;;;-0.94;87.66
75577;BME280;64157;50.138;14.544;2022-11-20T11:42:53;97852.47;;;-0.66;89.42
75577;BME280;64157;50.138;14.544;2022-11-20T11:45:19;97853.69;;;-0.54;87.25
75577;BME280;64157;50.138;14.544;2022-11-20T11:47:47;97840.19;;;-0.59;87.53
75577;BME280;64157;50.138;14.544;2022-11-20T11:50:22;97825.69;;;-0.68;86.21
75577;BME280;64157;50.138;14.544;2022-11-20T11:52:58;97838.78;;;-0.56;87.27
75577;BME280;64157;50.138;14.544;2022-11-20T11:55:45;97832.66;;;-0.43;87.21
75577;BME280;64157;50.138;14.544;2022-11-20T12:04:51;97794.53;;;-0.71;84.87
75577;BME280;64157;50.138;14.544;2022-11-20T12:07:36;97827.97;;;-0.56;88.63
75577;BME280;64157;50.138;14.544;2022-11-20T12:10:04;97780.63;;;-1.07;89.32
75577;BME280;64157;50.138;14.544;2022-11-20T12:12:39;97807.03;;;-0.93;90.02
75577;BME280;64157;50.138;14.544;2022-11-20T12:15:11;97837.13;;;-0.76;90.50
75577;BME280;64157;50.138;14.544;2022-11-20T12:17:37;97771.91;;;-1.22;90.28
75577;BME280;64157;50.138;14.544;2022-11-20T12:20:02;97822.91;;;-0.87;90.38
75577;BME280;64157;50.138;14.544;2022-11-20T12:25:24;97787.47;;;-1.09;89.25
75577;BME280;64157;50.138;14.544;2022-11-20T12:31:27;97801.56;;;-0.69;88.87
75577;BME280;64157;50.138;14.544;2022-11-20T15:57:58;97701.28;;;-1.26;92.49
75577;BME280;64157;50.138;14.544;2022-11-20T16:00:23;97667.28;;;-1.56;92.16
75577;BME280;64157;50.138;14.544;2022-11-20T16:02:48;97726.50;;;-1.30;92.15
75577;BME280;64157;50.138;14.544;2022-11-20T16:19:42;97734.81;;;-1.46;91.77
75577;BME280;64157;50.138;14.544;2022-11-20T16:22:11;97623.00;;;-2.13;91.35
75577;BME280;64157;50.138;14.544;2022-11-20T16:24:37;97599.34;;;-2.26;91.55
75577;BME280;64157;50.138;14.544;2022-11-20T16:27:12;97579.22;;;-2.38;91.59
75577;BME280;64157;50.138;14.544;2022-11-20T16:29:51;97637.84;;;-2.10;91.42
75577;BME280;64157;50.138;14.544;2022-11-20T16:32:21;97563.41;;;-2.50;91.89
75577;BME280;64157;50.138;14.544;2022-11-20T16:35:12;97637.44;;;-2.22;91.82
75577;BME280;64157;50.138;14.544;2022-11-20T16:37:47;97661.72;;;-2.17;92.12
75577;BME280;64157;50.138;14.544;2022-11-20T16:40:13;97662.09;;;-2.29;92.33
75577;BME280;64157;50.138;14.544;2022-11-20T16:42:39;97637.44;;;-2.51;92.61
75577;BME280;64157;50.138;14.544;2022-11-20T16:45:05;97591.81;;;-2.87;92.76
75577;BME280;64157;50.138;14.544;2022-11-20T16:47:34;97669.75;;;-2.41;93.18
75577;BME280;64157;50.138;14.544;2022-11-20T16:50:03;97630.03;;;-2.69;93.29
75577;BME280;64157;50.138;14.544;2022-11-20T16:52:29;97659.31;;;-2.53;93.48
75577;BME280;64157;50.138;14.544;2022-11-20T16:54:58;97727.69;;;-2.18;93.34
75577;BME280;64157;50.138;14.544;2022-11-20T16:57:24;97653.78;;;-2.71;93.24
75577;BME280;64157;50.138;14.544;2022-11-20T16:59:49;97700.56;;;-2.42;93.69
75577;BME280;64157;50.138;14.544;2022-11-20T17:02:15;97698.47;;;-2.50;93.16
75577;BME280;64157;50.138;14.544;2022-11-20T17:04:41;97719.53;;;-2.47;93.29
75577;BME280;64157;50.138;14.544;2022-11-20T17:07:06;97684.84;;;-2.69;93.31
75577;BME280;64157;50.138;14.544;2022-11-20T17:09:32;97691.75;;;-2.92;93.02
75577;BME280;64157;50.138;14.544;2022-11-20T17:11:58;97697.34;;;-2.78;93.50
75577;BME280;64157;50.138;14.544;2022-11-20T17:14:24;97698.34;;;-2.69;93.66
75577;BME280;64157;50.138;14.544;2022-11-20T17:16:49;97703.47;;;-2.67;93.73
75577;BME280;64157;50.138;14.544;2022-11-20T17:19:15;97651.75;;;-2.90;94.00
75577;BME280;64157;50.138;14.544;2022-11-20T17:21:40;97713.53;;;-2.44;93.92
75577;BME280;64157;50.138;14.544;2022-11-20T17:24:15;97718.38;;;-2.36;94.01
75577;BME280;64157;50.138;14.544;2022-11-20T17:26:42;97689.75;;;-2.42;94.08
75577;BME280;64157;50.138;14.544;2022-11-20T17:29:12;97611.56;;;-2.91;93.79
75577;BME280;64157;50.138;14.544;2022-11-20T17:31:39;97720.38;;;-2.18;93.81
75577;BME280;64157;50.138;14.544;2022-11-20T17:34:06;97704.75;;;-2.26;94.09
75577;BME280;64157;50.138;14.544;2022-11-20T17:36:33;97723.53;;;-2.10;94.04
75577;BME280;64157;50.138;14.544;2022-11-20T17:38:59;97671.38;;;-2.40;93.96
75577;BME280;64157;50.138;14.544;2022-11-20T17:41:26;97718.41;;;-2.12;93.91
75577;BME280;64157;50.138;14.544;2022-11-20T17:43:57;97693.94;;;-2.26;94.04
75577;BME280;64157;50.138;14.544;2022-11-20T17:46:25;97678.38;;;-2.39;93.90
75577;BME280;64157;50.138;14.544;2022-11-20T17:48:51;97703.13;;;-2.27;94.00
75577;BME280;64157;50.138;14.544;2022-11-20T17:51:21;97718.28;;;-2.26;93.52
75577;BME280;64157;50.138;14.544;2022-11-20T17:53:50;97654.31;;;-2.69;93.81
75577;BME280;64157;50.138;14.544;2022-11-20T17:56:16;97720.97;;;-2.26;93.95
75577;BME280;64157;50.138;14.544;2022-11-20T17:59:11;97657.28;;;-2.66;93.90
75577;BME280;64157;50.138;14.544;2022-11-20T18:01:37;97712.16;;;-2.36;93.87
75577;BME280;64157;50.138;14.544;2022-11-20T18:04:04;97702.94;;;-2.30;93.94
75577;BME280;64157;50.138;14.544;2022-11-20T18:06:30;97675.22;;;-2.46;94.01
75577;BME280;64157;50.138;14.544;2022-11-20T18:09:00;97707.75;;;-2.27;94.14
75577;BME280;64157;50.138;14.544;2022-11-20T18:11:27;97703.88;;;-2.16;94.13
75577;BME280;64157;50.138;14.544;2022-11-20T18:13:55;97699.88;;;-2.24;94.14
75577;BME280;64157;50.138;14.544;2022-11-20T18:16:45;97707.88;;;-2.14;94.43
75577;BME280;64157;50.138;14.544;2022-11-20T18:19:13;97667.56;;;-2.34;94.06
75577;BME280;64157;50.138;14.544;2022-11-20T18:21:39;97690.16;;;-2.25;94.07
75577;BME280;64157;50.138;14.544;2022-11-20T18:24:05;97684.28;;;-2.32;93.87
75577;BME280;64157;50.138;14.544;2022-11-20T18:26:30;97670.72;;;-2.27;93.80
75577;BME280;64157;50.138;14.544;2022-11-20T18:28:56;97641.91;;;-2.36;94.17
75577;BME280;64157;50.138;14.544;2022-11-20T18:31:22;97691.84;;;-2.00;94.34
75577;BME280;64157;50.138;14.544;2022-11-20T18:33:47;97659.06;;;-2.22;94.20
75577;BME280;64157;50.138;14.544;2022-11-20T18:38:40;97648.06;;;-2.31;94.28
75577;BME280;64157;50.138;14.544;2022-11-20T18:41:07;97614.06;;;-2.66;93.96
75577;BME280;64157;50.138;14.544;2022-11-20T18:43:33;97635.16;;;-2.73;94.15
75577;BME280;64157;50.138;14.544;2022-11-20T18:46:17;97668.78;;;-2.55;93.94
75577;BME280;64157;50.138;14.544;2022-11-20T18:48:44;97677.94;;;-2.46;94.09
75577;BME280;64157;50.138;14.544;2022-11-20T18:51:10;97633.25;;;-2.67;94.06
75577;BME280;64157;50.138;14.544;2022-11-20T18:53:38;97636.47;;;-2.65;94.14
75577;BME280;64157;50.138;14.544;2022-11-20T18:56:05;97610.44;;;-2.85;93.93
75577;BME280;64157;50.138;14.544;2022-11-20T18:58:30;97671.94;;;-2.43;94.34
75577;BME280;64157;50.138;14.544;2022-11-20T19:01:03;97672.66;;;-2.32;94.39
75577;BME280;64157;50.138;14.544;2022-11-20T19:03:29;97685.81;;;-2.21;94.38
75577;BME280;64157;50.138;14.544;2022-11-20T19:05:55;97623.16;;;-2.57;94.47
75577;BME280;64157;50.138;14.544;2022-11-20T19:08:20;97643.81;;;-2.42;94.23
75577;BME280;64157;50.138;14.544;2022-11-20T19:10:45;97653.69;;;-2.27;94.59
75577;BME280;64157;50.138;14.544;2022-11-20T19:13:11;97655.91;;;-2.29;94.59
75577;BME280;64157;50.138;14.544;2022-11-20T19:15:36;97624.06;;;-2.37;94.53
75577;BME280;64157;50.138;14.544;2022-11-20T19:18:01;97622.28;;;-2.47;94.61
75577;BME280;64157;50.138;14.544;2022-11-20T19:20:27;97621.91;;;-2.35;94.66
75577;BME280;64157;50.138;14.544;2022-11-20T19:22:52;97670.50;;;-2.01;94.42
75577;BME280;64157;50.138;14.544;2022-11-20T19:25:18;97638.66;;;-2.09;94.50
75577;BME280;64157;50.138;14.544;2022-11-20T19:27:43;97648.78;;;-1.96;94.67
75577;BME280;64157;50.138;14.544;2022-11-20T19:30:09;97641.84;;;-2.02;94.44
75577;BME280;64157;50.138;14.544;2022-11-20T19:32:35;97654.00;;;-2.00;94.43
75577;BME280;64157;50.138;14.544;2022-11-20T19:35:01;97660.25;;;-2.04;94.66
75577;BME280;64157;50.138;14.544;2022-11-20T19:37:33;97656.59;;;-2.19;94.51
75577;BME280;64157;50.138;14.544;2022-11-20T19:39:59;97651.00;;;-2.27;94.54
75577;BME280;64157;50.138;14.544;2022-11-20T19:42:29;97641.13;;;-2.42;94.49
75577;BME280;64157;50.138;14.544;2022-11-20T19:44:54;97649.19;;;-2.37;94.75
75577;BME280;64157;50.138;14.544;2022-11-20T19:47:22;97604.66;;;-2.73;94.48
75577;BME280;64157;50.138;14.544;2022-11-20T19:49:47;97652.94;;;-2.62;94.16
75577;BME280;64157;50.138;14.544;2022-11-20T19:52:13;97664.75;;;-2.92;94.03
75577;BME280;64157;50.138;14.544;2022-11-20T19:54:38;97653.28;;;-3.12;93.89
75577;BME280;64157;50.138;14.544;2022-11-20T19:57:04;97624.84;;;-3.44;93.88
75577;BME280;64157;50.138;14.544;2022-11-20T19:59:29;97656.59;;;-3.31;93.81
75577;BME280;64157;50.138;14.544;2022-11-20T20:01:55;97673.00;;;-3.17;93.96
75577;BME280;64157;50.138;14.544;2022-11-20T20:04:20;97676.97;;;-3.04;94.04
75577;BME280;64157;50.138;14.544;2022-11-20T20:06:46;97661.66;;;-3.14;94.07
75577;BME280;64157;50.138;14.544;2022-11-20T20:09:12;97677.75;;;-3.04;94.12
75577;BME280;64157;50.138;14.544;2022-11-20T20:11:38;97675.94;;;-3.08;93.86
75577;BME280;64157;50.138;14.544;2022-11-20T20:14:12;97661.28;;;-3.02;94.28
75577;BME280;64157;50.138;14.544;2022-11-20T20:16:38;97668.03;;;-3.00;94.47
75577;BME280;64157;50.138;14.544;2022-11-20T20:19:04;97663.19;;;-3.03;94.46
75577;BME280;64157;50.138;14.544;2022-11-20T20:21:31;97655.16;;;-3.08;94.35
75577;BME280;64157;50.138;14.544;2022-11-20T20:23:57;97626.59;;;-3.19;94.09
75577;BME280;64157;50.138;14.544;2022-11-20T20:26:24;97650.91;;;-2.80;94.34
75577;BME280;64157;50.138;14.544;2022-11-20T20:28:50;97629.78;;;-2.73;94.31
75577;BME280;64157;50.138;14.544;2022-11-20T20:31:18;97629.31;;;-2.80;94.35
75577;BME280;64157;50.138;14.544;2022-11-20T20:33:44;97667.81;;;-2.69;94.08
75577;BME280;64157;50.138;14.544;2022-11-20T20:36:11;97633.41;;;-2.88;94.18
75577;BME280;64157;50.138;14.544;2022-11-20T20:38:37;97645.16;;;-2.73;94.49
75577;BME280;64157;50.138;14.544;2022-11-20T20:41:03;97633.91;;;-2.80;94.24
75577;BME280;64157;50.138;14.544;2022-11-20T20:43:29;97604.88;;;-2.99;93.87
75577;BME280;64157;50.138;14.544;2022-11-20T20:45:55;97649.44;;;-2.67;94.08
75577;BME280;64157;50.138;14.544;2022-11-20T20:48:22;97619.88;;;-2.83;94.45
75577;BME280;64157;50.138;14.544;2022-11-20T20:50:55;97632.19;;;-2.71;94.06
75577;BME280;64157;50.138;14.544;2022-11-20T20:53:21;97655.72;;;-2.43;94.29
75577;BME280;64157;50.138;14.544;2022-11-20T20:56:00;97649.75;;;-2.40;94.22
75577;BME280;64157;50.138;14.544;2022-11-20T20:58:27;97619.50;;;-2.42;93.86
75577;BME280;64157;50.138;14.544;2022-11-20T21:00:54;97637.34;;;-2.41;93.85
75577;BME280;64157;50.138;14.544;2022-11-20T21:03:25;97646.66;;;-2.28;94.45
75577;BME280;64157;50.138;14.544;2022-11-20T21:05:55;97630.03;;;-2.40;93.97
75577;BME280;64157;50.138;14.544;2022-11-20T21:08:21;97637.88;;;-2.39;94.27
75577;BME280;64157;50.138;14.544;2022-11-20T21:10:54;97633.16;;;-2.57;94.16
75577;BME280;64157;50.138;14.544;2022-11-20T21:13:21;97652.03;;;-2.52;94.43
75577;BME280;64157;50.138;14.544;2022-11-20T21:15:48;97633.91;;;-2.46;94.10
75577;BME280;64157;50.138;14.544;2022-11-20T21:18:19;97638.16;;;-2.40;94.12
75577;BME280;64157;50.138;14.544;2022-11-20T21:20:46;97627.53;;;-2.32;94.06
75577;BME280;64157;50.138;14.544;2022-11-20T21:23:30;97597.47;;;-2.25;94.11
75577;BME280;64157;50.138;14.544;2022-11-20T21:25:58;97578.44;;;-2.39;93.94
75577;BME280;64157;50.138;14.544;2022-11-20T21:28:24;97559.06;;;-2.46;94.16
75577;BME280;64157;50.138;14.544;2022-11-20T21:30:49;97585.28;;;-2.23;94.15
75577;BME280;64157;50.138;14.544;2022-11-20T21:33:15;97553.06;;;-2.43;94.29
75577;BME280;64157;50.138;14.544;2022-11-20T21:35:40;97575.97;;;-2.12;94.21
75577;BME280;64157;50.138;14.544;2022-11-20T21:38:05;97552.63;;;-2.26;93.91
75577;BME280;64157;50.138;14.544;2022-11-20T21:40:31;97546.75;;;-2.33;93.79
75577;BME280;64157;50.138;14.544;2022-11-20T21:42:56;97508.91;;;-2.57;94.04
75577;BME280;64157;50.138;14.544;2022-11-20T21:45:22;97506.88;;;-2.70;93.90
75577;BME280;64157;50.138;14.544;2022-11-20T21:47:48;97545.41;;;-2.60;94.04
75577;BME280;64157;50.138;14.544;2022-11-20T21:50:14;97544.91;;;-2.62;93.63
75577;BME280;64157;50.138;14.544;2022-11-20T21:52:40;97545.59;;;-2.51;93.84
75577;BME280;64157;50.138;14.544;2022-11-20T21:55:05;97528.94;;;-2.34;93.78
75577;BME280;64157;50.138;14.544;2022-11-20T21:57:35;97543.53;;;-2.12;93.92
75577;BME280;64157;50.138;14.544;2022-11-20T22:00:02;97551.25;;;-2.00;93.51
75577;BME280;64157;50.138;14.544;2022-11-20T22:02:28;97484.56;;;-2.52;93.62
75577;BME280;64157;50.138;14.544;2022-11-20T22:04:53;97525.16;;;-2.33;93.99
75577;BME280;64157;50.138;14.544;2022-11-20T22:07:19;97520.56;;;-2.33;93.66
75577;BME280;64157;50.138;14.544;2022-11-20T22:09:44;97497.50;;;-2.49;93.72
75577;BME280;64157;50.138;14.544;2022-11-20T22:12:10;97519.84;;;-2.43;93.97
75577;BME280;64157;50.138;14.544;2022-11-20T22:14:36;97542.56;;;-2.21;93.95
75577;BME280;64157;50.138;14.544;2022-11-20T22:17:01;97500.19;;;-2.49;93.88
75577;BME280;64157;50.138;14.544;2022-11-20T22:19:26;97531.72;;;-2.16;94.07
75577;BME280;64157;50.138;14.544;2022-11-20T22:21:52;97504.78;;;-2.26;94.12
75577;BME280;64157;50.138;14.544;2022-11-20T22:24:19;97512.00;;;-1.97;94.03
75577;BME280;64157;50.138;14.544;2022-11-20T22:26:45;97525.13;;;-1.86;93.91
75577;BME280;64157;50.138;14.544;2022-11-20T22:29:17;97536.88;;;-1.77;93.36
75577;BME280;64157;50.138;14.544;2022-11-20T22:31:42;97537.88;;;-1.91;93.29
75577;BME280;64157;50.138;14.544;2022-11-20T22:34:12;97528.06;;;-2.06;93.43
75577;BME280;64157;50.138;14.544;2022-11-20T22:36:38;97536.66;;;-1.99;93.45
75577;BME280;64157;50.138;14.544;2022-11-20T22:39:04;97522.59;;;-2.01;93.75
75577;BME280;64157;50.138;14.544;2022-11-20T22:41:30;97511.78;;;-2.01;93.48
75577;BME280;64157;50.138;14.544;2022-11-20T22:43:57;97517.34;;;-1.92;93.46
75577;BME280;64157;50.138;14.544;2022-11-20T22:46:24;97527.53;;;-1.84;93.65
75577;BME280;64157;50.138;14.544;2022-11-20T22:48:52;97509.75;;;-1.90;93.68
75577;BME280;64157;50.138;14.544;2022-11-20T22:51:20;97491.34;;;-1.88;93.60
75577;BME280;64157;50.138;14.544;2022-11-20T22:53:47;97513.56;;;-1.72;93.74
75577;BME280;64157;50.138;14.544;2022-11-20T22:56:13;97480.88;;;-1.95;93.92
75577;BME280;64157;50.138;14.544;2022-11-20T22:58:41;97520.31;;;-1.70;93.89
75577;BME280;64157;50.138;14.544;2022-11-20T23:01:12;97423.88;;;-2.17;94.04
75577;BME280;64157;50.138;14.544;2022-11-20T23:03:39;97465.25;;;-1.79;93.62
75577;BME280;64157;50.138;14.544;2022-11-20T23:06:06;97451.88;;;-1.89;93.92
75577;BME280;64157;50.138;14.544;2022-11-20T23:08:32;97470.94;;;-1.62;93.83
75577;BME280;64157;50.138;14.544;2022-11-20T23:11:06;97447.94;;;-1.78;93.75
75577;BME280;64157;50.138;14.544;2022-11-20T23:13:32;97452.59;;;-1.65;93.40
75577;BME280;64157;50.138;14.544;2022-11-20T23:18:34;97486.44;;;-1.49;93.61
75577;BME280;64157;50.138;14.544;2022-11-20T23:21:12;97480.00;;;-1.53;93.74
75577;BME280;64157;50.138;14.544;2022-11-20T23:23:38;97463.94;;;-1.63;93.41
75577;BME280;64157;50.138;14.544;2022-11-20T23:26:06;97493.91;;;-1.40;93.61
75577;BME280;64157;50.138;14.544;2022-11-20T23:28:32;97480.75;;;-1.47;93.69
75577;BME280;64157;50.138;14.544;2022-11-20T23:30:58;97493.81;;;-1.35;93.89
75577;BME280;64157;50.138;14.544;2022-11-20T23:33:24;97493.16;;;-1.27;93.85
75577;BME280;64157;50.138;14.544;2022-11-20T23:35:50;97428.75;;;-1.63;93.66
75577;BME280;64157;50.138;14.544;2022-11-20T23:38:16;97465.88;;;-1.31;93.44
75577;BME280;64157;50.138;14.544;2022-11-20T23:40:48;97455.22;;;-1.41;93.45
75577;BME280;64157;50.138;14.544;2022-11-20T23:43:15;97411.97;;;-1.79;93.72
75577;BME280;64157;50.138;14.544;2022-11-20T23:45:42;97428.69;;;-1.58;93.54
75577;BME280;64157;50.138;14.544;2022-11-20T23:48:07;97411.44;;;-1.62;93.82
75577;BME280;64157;50.138;14.544;2022-11-20T23:50:34;97426.91;;;-1.49;93.92
75577;BME280;64157;50.138;14.544;2022-11-20T23:52:59;97468.50;;;-1.26;93.53